Komatsu, Japan
Current Conditions -  °F | °C
As of 8:00 PM on Friday 28 Nov 2014 (Local Time) from RJNK Reporting Station
Broken Clouds Broken Clouds  
Wind Chill: 66°   Ceiling: 8000
Heat Index: 66°   Visibility: 6mi
Dew Point: 46°   Wind: 10mph
Humidity: 49%   Direction: 170°S
Pressure: 30"   Gusts: NA
Location:  36.41°N, 136.44°E
Report Text: RJNK 281100Z 17009KT 9999 SCT050 BKN080 BKN120 19/08 Q1016
Loading
Personal Weather Stations






























Interactive Weather Map New forecast layout! Learn more

10-Day Weather Forecast

Advertisements
Track Severe Weather on mobile